Time;durP1;ratioP1;P1;durP2;ratioP2;P2;SDS_P1;SDS_P2;PMS_P1;PMS_P2;Temp;Humidity;BMP_temperature;BMP_pressure;BME280_temperature;BME280_humidity;BME280_pressure;Samples;Min_cycle;Max_cycle;Signal;HPM_P1;HPM_P2
2021/12/09 00:01:21;;;;;;;18.23;13.23;;;;;;;0.86;71.68;97888.81;5105282;28;20048;-65
2021/12/09 00:03:55;;;;;;;14.93;11.23;;;;;;;0.82;71.48;97887.22;5104988;28;20047;-65
2021/12/09 00:06:29;;;;;;;17.17;12.52;;;;;;;0.55;71.51;97849.19;5105241;28;20044;-65
2021/12/09 00:09:06;;;;;;;17.25;11.18;;;;;;;0.90;71.26;97899.97;5105191;28;20048;-65
2021/12/09 00:11:44;;;;;;;18.75;11.50;;;;;;;0.94;71.04;97878.91;5104418;28;20269;-65
2021/12/09 00:14:20;;;;;;;18.85;12.43;;;;;;;0.90;71.40;97918.22;5106285;28;20060;-65
2021/12/09 00:16:53;;;;;;;17.85;12.48;;;;;;;0.82;71.78;97915.06;5108815;28;20048;-65
2021/12/09 00:19:27;;;;;;;17.60;12.90;;;;;;;0.79;71.89;97916.03;5108788;28;20048;-65
2021/12/09 00:21:59;;;;;;;16.17;11.30;;;;;;;-3.99;71.11;97114.94;5108499;28;20044;-65
2021/12/09 00:24:31;;;;;;;17.33;12.48;;;;;;;-0.02;71.76;97800.16;5108412;28;20120;-65
2021/12/09 00:27:06;;;;;;;18.20;13.15;;;;;;;0.79;71.55;97931.69;5108606;28;20094;-65
2021/12/09 00:29:38;;;;;;;16.45;13.35;;;;;;;0.74;71.81;97904.94;5108532;28;20047;-65
2021/12/09 00:32:10;;;;;;;17.27;13.10;;;;;;;0.74;71.77;97909.31;5108559;28;20126;-65
2021/12/09 00:34:46;;;;;;;25.27;15.38;;;;;;;0.67;72.07;97900.00;5108469;28;20048;-65
2021/12/09 00:37:24;;;;;;;18.52;14.02;;;;;;;0.73;71.46;97881.53;5108185;28;20081;-65
2021/12/09 00:39:56;;;;;;;19.05;14.85;;;;;;;0.75;71.44;97864.06;5108089;28;20044;-65
2021/12/09 00:42:30;;;;;;;21.15;14.20;;;;;;;0.72;71.59;97864.19;5108399;28;20040;-65
2021/12/09 00:45:04;;;;;;;20.80;14.18;;;;;;;0.67;71.55;97882.63;5108087;28;20204;-64
2021/12/09 00:47:37;;;;;;;21.20;15.38;;;;;;;0.58;71.70;97901.22;5108265;28;20039;-65
2021/12/09 00:50:10;;;;;;;19.00;14.25;;;;;;;0.59;71.89;97915.94;5108217;28;20048;-64
2021/12/09 00:52:42;;;;;;;22.20;16.35;;;;;;;0.57;72.02;97889.09;5108149;28;20047;-64
2021/12/09 00:55:16;;;;;;;23.77;16.92;;;;;;;0.55;72.03;97909.16;5108091;28;20081;-64
2021/12/09 00:57:50;;;;;;;19.40;13.55;;;;;;;0.55;71.94;97890.91;5107796;28;20157;-64
2021/12/09 01:00:24;;;;;;;22.08;15.73;;;;;;;0.57;71.83;97865.63;5107746;28;20243;-64
2021/12/09 01:02:56;;;;;;;19.63;13.77;;;;;;;0.58;71.99;97883.81;5107997;28;20055;-64
2021/12/09 01:05:29;;;;;;;21.00;15.88;;;;;;;0.61;71.41;97867.22;5107660;28;20040;-64
2021/12/09 01:08:01;;;;;;;20.77;15.15;;;;;;;0.59;71.85;97866.41;5107812;28;20044;-64
2021/12/09 01:10:34;;;;;;;24.38;16.45;;;;;;;0.56;71.94;97877.81;5107547;28;20338;-64
2021/12/09 01:13:08;;;;;;;25.10;15.93;;;;;;;0.59;71.67;97875.09;5107421;28;20059;-64
2021/12/09 01:15:41;;;;;;;23.65;16.83;;;;;;;0.56;71.95;97884.78;5107461;28;20193;-64
2021/12/09 01:18:13;;;;;;;23.10;16.10;;;;;;;0.55;72.21;97872.66;5107427;28;20044;-64
2021/12/09 01:20:46;;;;;;;24.02;15.18;;;;;;;0.52;72.37;97906.66;5107609;28;20164;-64
2021/12/09 01:23:18;;;;;;;26.67;17.70;;;;;;;0.54;72.14;97902.25;5107207;28;20040;-64
2021/12/09 01:25:58;;;;;;;27.65;18.45;;;;;;;0.55;72.31;97896.13;5106111;28;20082;-65
2021/12/09 01:28:39;;;;;;;28.42;18.33;;;;;;;0.51;72.62;97903.22;5107069;28;20247;-65
2021/12/09 01:31:11;;;;;;;27.25;18.73;;;;;;;-3.87;72.18;97168.03;5107129;28;20288;-65
2021/12/09 01:33:43;;;;;;;26.65;19.25;;;;;;;0.54;72.95;97899.63;5107354;28;20056;-64
2021/12/09 01:36:16;;;;;;;25.77;17.90;;;;;;;0.48;73.10;97908.53;5107295;28;20102;-64
2021/12/09 01:38:48;;;;;;;28.08;19.42;;;;;;;0.48;73.10;97892.91;5107018;28;20089;-64
2021/12/09 01:41:18;;;;;;;26.85;17.85;;;;;;;0.48;73.45;97898.13;5106959;28;20291;-64
2021/12/09 01:43:50;;;;;;;25.55;17.98;;;;;;;0.48;73.49;97894.66;5107185;28;20040;-65
2021/12/09 01:46:21;;;;;;;28.27;19.55;;;;;;;0.39;74.01;97901.06;5107144;28;20048;-65
2021/12/09 01:48:52;;;;;;;28.85;19.80;;;;;;;0.41;74.00;97893.19;5106049;28;20052;-65
2021/12/09 01:51:21;;;;;;;26.73;18.13;;;;;;;0.37;74.16;97902.03;5106787;28;20062;-65
2021/12/09 01:53:50;;;;;;;28.35;18.92;;;;;;;0.42;74.22;97908.75;5106673;28;20047;-64
2021/12/09 01:56:22;;;;;;;26.88;20.20;;;;;;;0.37;74.89;97905.47;5106868;28;20334;-64
2021/12/09 01:58:53;;;;;;;32.85;20.63;;;;;;;0.25;75.83;97906.78;5106851;28;20068;-65
2021/12/09 02:01:26;;;;;;;30.85;22.63;;;;;;;0.19;76.85;97909.63;5106526;28;20040;-65
2021/12/09 02:03:57;;;;;;;32.70;21.88;;;;;;;-0.61;76.42;97780.59;5106777;28;20050;-65
2021/12/09 02:06:27;;;;;;;33.38;22.63;;;;;;;0.18;76.75;97901.84;5106715;28;20040;-64
2021/12/09 02:08:56;;;;;;;31.83;21.10;;;;;;;0.15;77.26;97905.44;5106674;28;20044;-64
2021/12/09 02:11:26;;;;;;;36.38;22.48;;;;;;;0.08;77.79;97897.88;5106474;28;20286;-64
2021/12/09 02:13:58;;;;;;;32.40;23.85;;;;;;;0.07;78.00;97891.81;5106306;28;20086;-64
2021/12/09 02:16:27;;;;;;;36.20;23.02;;;;;;;0.03;78.35;97887.63;5106597;28;20059;-64
2021/12/09 02:18:57;;;;;;;31.08;20.95;;;;;;;0.02;78.04;97888.53;5106288;28;20046;-64
2021/12/09 02:21:30;;;;;;;33.08;23.05;;;;;;;0.03;78.18;97881.56;5106493;28;20040;-64
2021/12/09 02:24:01;;;;;;;39.60;26.70;;;;;;;-0.01;78.43;97891.25;5106316;28;20056;-64
2021/12/09 02:26:36;;;;;;;31.98;22.63;;;;;;;-0.01;78.50;97879.97;5106141;28;20242;-64
2021/12/09 02:29:09;;;;;;;;;;;;;;;-0.06;79.42;97881.00;5106552;28;20047;-64
2021/12/09 02:31:43;;;;;;;34.63;21.83;;;;;;;-0.10;79.15;97886.38;5106135;28;19916;-64
2021/12/09 02:34:15;;;;;;;35.28;23.58;;;;;;;-0.13;78.90;97883.88;5106320;28;20048;-64
2021/12/09 02:36:51;;;;;;;35.95;25.05;;;;;;;-1.80;78.76;97615.72;5105759;28;20189;-65
2021/12/09 02:39:23;;;;;;;37.25;24.55;;;;;;;-0.18;79.53;97891.84;5106230;28;20044;-65
2021/12/09 02:41:55;;;;;;;42.13;26.23;;;;;;;-0.21;79.47;97880.69;5105944;28;20333;-65
2021/12/09 02:44:28;;;;;;;41.63;26.05;;;;;;;-0.20;79.67;97887.59;5106202;28;20055;-65
2021/12/09 02:47:00;;;;;;;36.47;25.50;;;;;;;-0.24;79.98;97881.66;5106180;28;20048;-65
2021/12/09 02:49:33;;;;;;;39.80;24.30;;;;;;;-0.22;79.49;97886.81;5106054;28;20052;-64
2021/12/09 02:52:07;;;;;;;39.97;24.50;;;;;;;-0.23;79.86;97870.34;5106078;28;20117;-64
2021/12/09 02:54:39;;;;;;;40.90;24.37;;;;;;;-0.92;79.76;97798.16;5106057;28;20284;-64
2021/12/09 02:57:12;;;;;;;41.42;25.63;;;;;;;-0.25;79.87;97879.09;5106049;28;20420;-64
2021/12/09 02:59:44;;;;;;;37.72;25.98;;;;;;;-0.26;80.14;97888.66;5106000;28;20044;-64
2021/12/09 03:02:19;;;;;;;46.45;27.48;;;;;;;-0.27;80.10;97888.72;5105737;28;20047;-64
2021/12/09 03:04:54;;;;;;;39.88;25.40;;;;;;;-0.30;80.18;97888.84;5105748;28;20040;-65
2021/12/09 03:07:32;;;;;;;33.97;21.73;;;;;;;-0.29;80.51;97886.19;5105912;28;20044;-65
2021/12/09 03:10:09;;;;;;;44.03;27.67;;;;;;;-0.33;80.10;97881.97;5105566;28;20040;-65
2021/12/09 03:12:42;;;;;;;40.28;26.38;;;;;;;-0.29;80.54;97887.94;5105387;28;20231;-65
2021/12/09 03:15:15;;;;;;;40.95;27.17;;;;;;;-0.29;80.62;97909.59;5105567;28;20251;-65
2021/12/09 03:17:48;;;;;;;42.60;26.90;;;;;;;-0.36;80.60;97900.31;5105872;28;20036;-64
2021/12/09 03:20:21;;;;;;;44.25;26.95;;;;;;;-0.37;80.94;97901.22;5105807;28;20051;-64
2021/12/09 03:22:54;;;;;;;44.97;28.02;;;;;;;-0.40;80.73;97902.16;5105508;28;20182;-64
2021/12/09 03:25:26;;;;;;;42.35;26.67;;;;;;;-0.40;80.97;97907.38;5105547;28;20250;-64
2021/12/09 03:27:59;;;;;;;35.15;25.70;;;;;;;-0.36;80.83;97905.50;5105659;28;20048;-64
2021/12/09 03:30:31;;;;;;;37.60;25.77;;;;;;;-0.40;80.61;97902.16;5105558;28;20227;-65
2021/12/09 03:33:03;;;;;;;38.90;25.65;;;;;;;-0.39;80.87;97908.22;5105650;28;20337;-64
2021/12/09 03:35:35;;;;;;;39.65;27.45;;;;;;;-0.42;81.13;97913.53;5105524;28;20090;-65
2021/12/09 03:38:09;;;;;;;43.88;29.00;;;;;;;-0.40;81.29;97915.19;5105424;28;20058;-64
2021/12/09 03:40:41;;;;;;;39.22;25.92;;;;;;;-0.39;81.16;97916.03;5105491;28;20246;-64
2021/12/09 03:43:13;;;;;;;41.92;27.13;;;;;;;-0.41;81.43;97929.09;5105598;28;20052;-65
2021/12/09 03:45:45;;;;;;;38.85;25.48;;;;;;;-0.41;81.17;97925.66;5105534;28;20047;-65
2021/12/09 03:48:18;;;;;;;40.55;24.83;;;;;;;-0.40;81.35;97925.59;5105360;28;20177;-64
2021/12/09 03:50:50;;;;;;;45.47;27.80;;;;;;;-0.41;81.19;97933.44;5109319;28;20086;-65
2021/12/09 03:53:24;;;;;;;37.33;25.23;;;;;;;-0.43;81.08;97937.84;5109391;28;20047;-65
2021/12/09 03:55:57;;;;;;;39.72;26.83;;;;;;;-0.43;81.05;97924.84;5109065;28;20048;-65
2021/12/09 03:58:29;;;;;;;47.65;29.15;;;;;;;-0.99;81.33;97848.69;5108961;28;20093;-65
2021/12/09 04:01:02;;;;;;;43.75;27.92;;;;;;;-2.89;81.00;97531.03;5109254;28;20101;-66
2021/12/09 04:03:34;;;;;;;42.58;27.25;;;;;;;-0.42;81.17;97939.56;5109217;28;20250;-66
2021/12/09 04:06:06;;;;;;;42.63;27.23;;;;;;;-0.44;81.37;97942.22;5109189;28;20048;-65
2021/12/09 04:08:39;;;;;;;39.92;26.35;;;;;;;-0.40;81.10;97945.56;5108883;28;20085;-66
2021/12/09 04:11:11;;;;;;;42.85;28.70;;;;;;;-0.79;81.15;97888.75;5108731;28;20357;-66
2021/12/09 04:13:44;;;;;;;39.92;27.77;;;;;;;-0.46;81.64;97949.22;5108705;28;20060;-65
2021/12/09 04:16:16;;;;;;;46.45;25.77;;;;;;;-0.51;81.98;97955.47;5108719;28;20036;-65
2021/12/09 04:18:49;;;;;;;40.42;26.75;;;;;;;-0.53;82.13;97955.53;5108935;28;20048;-65
2021/12/09 04:21:21;;;;;;;38.13;24.73;;;;;;;-0.53;82.51;97963.34;5109360;28;20234;-66
2021/12/09 04:23:55;;;;;;;42.67;27.73;;;;;;;-0.56;82.20;97955.63;5108796;28;20109;-66
2021/12/09 04:26:27;;;;;;;41.72;27.05;;;;;;;-0.56;82.48;97955.63;5108749;28;20048;-65
2021/12/09 04:28:59;;;;;;;40.42;26.35;;;;;;;-0.54;82.36;97953.84;5108495;28;20040;-66
2021/12/09 04:31:30;;;;;;;39.85;25.23;;;;;;;-0.56;82.49;97950.44;5108513;28;20044;-66
2021/12/09 04:34:00;;;;;;;38.50;25.23;;;;;;;-0.53;82.31;97955.53;5108573;28;20040;-66
2021/12/09 04:36:30;;;;;;;40.20;26.23;;;;;;;-0.76;82.44;97912.06;5108291;28;20239;-66
2021/12/09 04:39:03;;;;;;;39.30;27.75;;;;;;;-0.48;82.38;97948.44;5108187;28;20046;-65
2021/12/09 04:41:35;;;;;;;39.05;24.90;;;;;;;-0.45;82.29;97950.06;5108457;28;20055;-65
2021/12/09 04:44:07;;;;;;;38.88;27.00;;;;;;;-0.46;82.24;97944.03;5108338;28;20044;-65
2021/12/09 04:46:37;;;;;;;40.30;25.40;;;;;;;-0.47;82.11;97947.53;5108248;28;20040;-65
2021/12/09 04:49:07;;;;;;;38.47;25.35;;;;;;;-0.48;82.05;97950.19;5108246;28;20075;-65
2021/12/09 04:51:36;;;;;;;36.05;24.85;;;;;;;-0.48;82.33;97957.97;5108048;28;20204;-65
2021/12/09 04:54:09;;;;;;;40.90;26.50;;;;;;;-0.49;82.35;97958.88;5107833;28;20040;-66
2021/12/09 04:56:38;;;;;;;36.85;25.50;;;;;;;-0.45;82.05;97969.16;5108103;28;20063;-65
2021/12/09 04:59:08;;;;;;;35.55;24.15;;;;;;;-0.42;82.29;97973.41;5107930;28;20052;-66
2021/12/09 05:01:38;;;;;;;39.83;26.55;;;;;;;-0.38;81.98;97968.03;5107949;28;20296;-66
2021/12/09 05:04:08;;;;;;;37.67;26.38;;;;;;;-0.41;82.25;97978.56;5108553;28;20047;-65
2021/12/09 05:06:38;;;;;;;41.03;25.08;;;;;;;-0.45;82.02;97982.16;5107787;28;20056;-66
2021/12/09 05:09:16;;;;;;;37.78;25.40;;;;;;;-0.41;82.33;97980.31;5107497;28;20043;-65
2021/12/09 05:11:51;;;;;;;37.45;23.95;;;;;;;-0.43;81.86;97969.94;5107702;28;20093;-65
2021/12/09 05:14:24;;;;;;;38.22;23.63;;;;;;;-0.84;81.83;97882.00;5107215;28;20250;-65
2021/12/09 05:16:56;;;;;;;37.55;25.98;;;;;;;-0.40;81.96;97940.34;5107344;28;20047;-65
2021/12/09 05:19:28;;;;;;;37.55;24.00;;;;;;;-0.46;82.09;97925.81;5107534;28;20269;-65
2021/12/09 05:22:00;;;;;;;39.78;26.00;;;;;;;-0.41;81.86;97936.91;5107515;28;20048;-66
2021/12/09 05:24:35;;;;;;;39.42;26.42;;;;;;;-0.40;82.00;97946.41;5107449;28;20048;-65
2021/12/09 05:27:11;;;;;;;34.80;23.55;;;;;;;-0.42;82.08;97957.78;5107394;28;20062;-66
2021/12/09 05:29:44;;;;;;;41.10;26.65;;;;;;;-0.36;81.42;97958.44;5107324;28;20093;-65
2021/12/09 05:32:17;;;;;;;44.35;28.30;;;;;;;-0.39;81.57;97949.88;5107320;28;20056;-65
2021/12/09 05:34:51;;;;;;;37.78;23.20;;;;;;;-0.40;81.89;97951.63;5107193;28;20048;-65
2021/12/09 05:37:24;;;;;;;41.13;26.42;;;;;;;-0.40;81.43;97958.59;5107997;28;20048;-65
2021/12/09 05:39:59;;;;;;;35.95;24.35;;;;;;;-0.42;81.97;97965.59;5107144;28;20048;-65
2021/12/09 05:42:31;;;;;;;;;;;;;;;-0.42;82.45;97965.59;5107639;28;20062;-65
2021/12/09 05:45:04;;;;;;;38.13;22.70;;;;;;;-0.44;82.15;97957.84;5107079;28;19965;-65
2021/12/09 05:47:36;;;;;;;38.95;23.42;;;;;;;-0.42;82.01;97960.38;5107068;28;20105;-66
2021/12/09 05:50:11;;;;;;;37.03;23.48;;;;;;;-0.43;81.77;97964.75;5106890;28;20062;-66
2021/12/09 05:52:43;;;;;;;35.30;25.25;;;;;;;-0.43;82.04;97976.91;5107007;28;20043;-66
2021/12/09 05:55:17;;;;;;;34.67;24.08;;;;;;;-0.46;82.32;97984.81;5106998;28;20048;-66
2021/12/09 05:57:49;;;;;;;31.33;20.23;;;;;;;-0.45;82.07;97982.16;5106867;28;20097;-66
2021/12/09 06:00:21;;;;;;;32.13;21.63;;;;;;;-0.45;82.20;97963.94;5106902;28;20048;-67
2021/12/09 06:02:53;;;;;;;39.28;26.10;;;;;;;-0.44;82.09;97964.78;5106825;28;20048;-66
2021/12/09 06:05:26;;;;;;;32.58;21.05;;;;;;;-0.43;82.08;97966.50;5106459;28;20086;-67
2021/12/09 06:07:58;;;;;;;34.92;21.30;;;;;;;-0.43;81.86;97969.94;5106392;28;20039;-66
2021/12/09 06:10:34;;;;;;;33.17;21.73;;;;;;;-0.42;82.20;97976.84;5106551;28;20089;-66
2021/12/09 06:13:06;;;;;;;32.10;20.90;;;;;;;-0.39;81.75;97978.50;5105231;28;20262;-67
2021/12/09 06:15:38;;;;;;;34.42;23.88;;;;;;;-0.42;81.98;97976.84;5106576;28;20086;-67
2021/12/09 06:18:11;;;;;;;24.33;18.10;;;;;;;-0.39;81.81;97971.53;5106210;28;20085;-66
2021/12/09 06:20:43;;;;;;;32.83;20.98;;;;;;;-0.36;82.00;97978.41;5106305;28;20048;-67
2021/12/09 06:23:15;;;;;;;29.92;19.52;;;;;;;-0.39;82.19;97984.56;5106219;28;20231;-66
2021/12/09 06:25:49;;;;;;;31.40;22.38;;;;;;;-0.36;81.69;97991.41;5106296;28;20035;-66
2021/12/09 06:28:22;;;;;;;29.40;19.95;;;;;;;-0.42;82.00;97989.00;5107014;28;20048;-67
2021/12/09 06:30:54;;;;;;;31.05;20.33;;;;;;;-0.47;82.26;97999.56;5105948;28;20250;-66
2021/12/09 06:33:26;;;;;;;27.92;17.88;;;;;;;-0.45;82.27;97992.56;5106135;28;20052;-66
2021/12/09 06:35:58;;;;;;;30.10;19.20;;;;;;;-0.41;82.04;97993.31;5106030;28;20085;-66
2021/12/09 06:38:31;;;;;;;34.92;20.13;;;;;;;-0.39;82.29;97996.72;5106186;28;20044;-66
2021/12/09 06:41:05;;;;;;;29.23;21.05;;;;;;;-0.40;82.26;98006.28;5105962;28;20044;-66
2021/12/09 06:43:37;;;;;;;32.08;21.65;;;;;;;-0.42;82.13;97999.44;5105962;28;20118;-66
2021/12/09 06:46:12;;;;;;;27.60;19.38;;;;;;;-0.42;82.12;98000.28;5106053;28;20047;-66
2021/12/09 06:48:44;;;;;;;34.83;21.92;;;;;;;-0.43;82.42;98005.53;5105977;28;20085;-67
2021/12/09 06:51:16;;;;;;;30.08;19.98;;;;;;;-0.44;82.50;98015.09;5105628;28;20265;-66
2021/12/09 06:53:49;;;;;;;32.88;22.33;;;;;;;-0.43;82.53;98011.59;5105864;28;20046;-66
2021/12/09 06:56:22;;;;;;;33.97;23.02;;;;;;;-0.46;82.54;98001.28;5106659;28;20215;-66
2021/12/09 06:58:54;;;;;;;33.00;19.08;;;;;;;-0.48;82.76;98010.88;5105852;28;20056;-66
2021/12/09 07:01:27;;;;;;;33.78;20.85;;;;;;;-0.46;82.79;98000.44;5105657;28;20052;-66
2021/12/09 07:03:59;;;;;;;39.50;20.20;;;;;;;-0.46;82.28;98014.28;5105376;28;20242;-66
2021/12/09 07:06:31;;;;;;;36.80;21.30;;;;;;;-0.45;82.44;98021.19;5105698;28;20063;-66
2021/12/09 07:09:04;;;;;;;33.78;21.73;;;;;;;-0.45;82.61;98039.44;5105321;28;20085;-66
2021/12/09 07:11:38;;;;;;;32.47;20.92;;;;;;;-0.44;82.55;98009.88;5105554;28;20044;-66
2021/12/09 07:14:10;;;;;;;28.75;20.38;;;;;;;-0.45;82.66;98013.41;5105280;28;20052;-67
2021/12/09 07:16:40;;;;;;;45.22;23.20;;;;;;;-0.45;82.37;98043.78;5105414;28;20044;-66
2021/12/09 07:19:11;;;;;;;32.97;18.90;;;;;;;-0.41;82.41;98017.59;5105181;28;20044;-66
2021/12/09 07:21:41;;;;;;;38.95;20.90;;;;;;;-0.41;82.58;98009.78;5104803;28;20192;-66
2021/12/09 07:24:11;;;;;;;32.33;18.48;;;;;;;-0.37;82.50;98006.19;5106809;28;20040;-66
2021/12/09 07:26:42;;;;;;;42.55;21.20;;;;;;;-0.37;82.14;97998.38;5109602;28;20071;-66
2021/12/09 07:29:11;;;;;;;30.75;21.42;;;;;;;-0.38;82.67;98003.63;5109543;28;20059;-66
2021/12/09 07:31:42;;;;;;;28.85;17.75;;;;;;;-0.42;82.71;98009.84;5109159;28;20350;-66
2021/12/09 07:34:12;;;;;;;26.67;18.50;;;;;;;-0.38;82.61;98008.84;5109429;28;20048;-67
2021/12/09 07:36:42;;;;;;;27.38;19.05;;;;;;;-0.37;82.91;98002.72;5109053;28;20071;-66
2021/12/09 07:39:12;;;;;;;29.50;17.67;;;;;;;-0.36;82.33;98004.44;5109289;28;20040;-66
2021/12/09 07:41:44;;;;;;;24.13;15.75;;;;;;;-0.33;82.58;98006.09;5109433;28;20055;-66
2021/12/09 07:44:13;;;;;;;23.75;15.82;;;;;;;-0.34;82.43;98026.06;5109304;28;20146;-66
2021/12/09 07:46:45;;;;;;;25.13;16.15;;;;;;;-0.37;82.43;98024.41;5109102;28;20071;-66
2021/12/09 07:49:13;;;;;;;22.10;15.43;;;;;;;-0.35;82.39;98019.16;5108903;28;20056;-67
2021/12/09 07:51:44;;;;;;;22.70;17.02;;;;;;;-0.38;82.54;98022.72;5109153;28;20303;-66
2021/12/09 07:54:14;;;;;;;23.63;16.75;;;;;;;-0.34;82.37;98015.66;5108767;28;20040;-66
2021/12/09 07:56:46;;;;;;;21.95;16.25;;;;;;;-0.32;82.59;98013.84;5109095;28;20056;-66
2021/12/09 07:59:14;;;;;;;24.25;17.85;;;;;;;-0.27;82.22;98016.28;5109008;28;20047;-65
2021/12/09 08:01:46;;;;;;;23.23;15.57;;;;;;;-0.24;82.23;98032.66;5108822;28;20048;-65
2021/12/09 08:04:15;;;;;;;23.58;14.80;;;;;;;-0.22;82.23;98045.63;5108645;28;20253;-65
2021/12/09 08:06:45;;;;;;;20.02;15.07;;;;;;;-0.24;82.07;98050.91;5108722;28;20047;-66
2021/12/09 08:09:15;;;;;;;23.20;16.27;;;;;;;-0.26;82.29;98041.44;5108640;28;20044;-66
2021/12/09 08:11:47;;;;;;;19.60;14.25;;;;;;;-0.24;82.36;98055.25;5108571;28;20103;-66
2021/12/09 08:14:19;;;;;;;22.55;16.00;;;;;;;-0.59;82.26;97984.34;5108167;28;20262;-65
2021/12/09 08:16:56;;;;;;;22.83;14.35;;;;;;;-0.19;82.08;98048.16;5107902;28;20078;-65
2021/12/09 08:19:28;;;;;;;21.98;14.48;;;;;;;-0.19;82.12;98055.94;5108259;28;20047;-66
2021/12/09 08:22:00;;;;;;;22.95;16.17;;;;;;;-0.16;81.97;98045.44;5108233;28;20101;-66
2021/12/09 08:24:33;;;;;;;21.90;14.82;;;;;;;-0.14;81.91;98061.88;5108362;28;20048;-65
2021/12/09 08:27:06;;;;;;;22.30;13.95;;;;;;;-0.13;82.03;98058.34;5108100;28;20097;-66
2021/12/09 08:29:38;;;;;;;19.63;14.15;;;;;;;-0.18;82.38;98055.06;5108187;28;20056;-66
2021/12/09 08:32:11;;;;;;;19.63;13.60;;;;;;;-0.18;82.45;98049.84;5107996;28;20044;-66
2021/12/09 08:34:43;;;;;;;23.73;14.98;;;;;;;-0.12;81.79;98047.88;5107481;28;20311;-66
2021/12/09 08:37:15;;;;;;;22.00;15.73;;;;;;;-0.42;81.53;97969.03;5107783;28;20185;-66
2021/12/09 08:39:47;;;;;;;19.75;14.10;;;;;;;-0.10;82.29;98038.28;5107955;28;20047;-65
2021/12/09 08:42:21;;;;;;;19.45;13.45;;;;;;;-0.33;82.00;97995.66;5108021;28;20043;-66
2021/12/09 08:44:55;;;;;;;19.48;14.93;;;;;;;-0.11;82.20;98025.31;5107615;28;20300;-66
2021/12/09 08:47:27;;;;;;;23.23;16.80;;;;;;;-0.09;81.70;98016.53;5108062;28;20285;-66
2021/12/09 08:49:59;;;;;;;24.60;15.63;;;;;;;-0.05;81.36;98020.75;5107944;28;20085;-66
2021/12/09 08:52:31;;;;;;;26.77;16.38;;;;;;;-0.02;81.69;98009.38;5107927;28;20094;-66
2021/12/09 08:55:05;;;;;;;22.70;16.15;;;;;;;0.03;81.57;98025.69;5108778;28;20051;-66
2021/12/09 08:57:39;;;;;;;20.27;14.57;;;;;;;0.04;81.34;98021.31;5107985;28;20090;-66
2021/12/09 09:00:14;;;;;;;26.03;17.43;;;;;;;0.04;81.58;98034.34;5107660;28;20044;-66
2021/12/09 09:02:49;;;;;;;26.80;17.88;;;;;;;0.02;81.88;98057.84;5107829;28;20145;-66
2021/12/09 09:05:21;;;;;;;21.77;14.93;;;;;;;0.03;81.56;98059.56;5107805;28;20044;-66
2021/12/09 09:07:54;;;;;;;17.00;11.90;;;;;;;0.04;81.40;98097.72;5107536;28;20250;-67
2021/12/09 09:10:29;;;;;;;21.65;13.98;;;;;;;0.04;81.41;98076.88;5107883;28;20081;-67
2021/12/09 09:13:03;;;;;;;18.02;12.80;;;;;;;0.06;81.25;98059.44;5107034;28;20338;-66
2021/12/09 09:15:36;;;;;;;20.05;14.15;;;;;;;0.00;81.55;98044.03;5107556;28;20048;-66
2021/12/09 09:18:09;;;;;;;21.38;13.93;;;;;;;-0.03;81.65;98023.28;5107575;28;20036;-65
2021/12/09 09:20:41;;;;;;;19.55;14.95;;;;;;;-0.03;81.80;98033.72;5107519;28;20040;-66
2021/12/09 09:23:15;;;;;;;21.20;13.93;;;;;;;0.02;81.50;98026.59;5107248;28;20148;-65
2021/12/09 09:25:48;;;;;;;20.95;14.82;;;;;;;0.02;81.45;98025.75;5107313;28;20133;-66
2021/12/09 09:28:22;;;;;;;19.17;12.80;;;;;;;-0.20;81.52;98000.41;5107367;28;20040;-66
2021/12/09 09:30:57;;;;;;;17.40;12.10;;;;;;;0.04;81.53;98027.38;5106930;28;20040;-66
2021/12/09 09:33:31;;;;;;;21.30;16.00;;;;;;;0.04;81.56;98023.94;5107186;28;20044;-66
2021/12/09 09:36:03;;;;;;;17.50;13.68;;;;;;;0.07;80.95;98029.03;5107117;28;20055;-66
2021/12/09 09:38:35;;;;;;;16.65;12.57;;;;;;;0.04;81.14;98030.00;5106989;28;20287;-65
2021/12/09 09:41:14;;;;;;;25.13;17.90;;;;;;;0.02;81.34;98034.41;5106940;28;20040;-66
2021/12/09 09:44:09;;;;;;;20.27;15.27;;;;;;;0.00;81.46;98031.00;5106831;28;20082;-65
2021/12/09 09:46:42;;;;;;;20.90;15.20;;;;;;;-0.21;81.28;97983.09;5105889;28;20056;-66
2021/12/09 09:49:14;;;;;;;21.65;14.57;;;;;;;0.03;81.25;98030.03;5106720;28;20085;-66
2021/12/09 09:51:46;;;;;;;21.10;13.68;;;;;;;0.04;81.45;98034.34;5106547;28;20052;-66
2021/12/09 09:54:19;;;;;;;16.63;12.57;;;;;;;0.08;81.28;98026.38;5106800;28;20193;-66
2021/12/09 09:56:49;;;;;;;15.20;11.57;;;;;;;0.08;81.28;98023.78;5106662;28;20047;-66
2021/12/09 09:59:20;;;;;;;14.70;11.85;;;;;;;0.11;81.08;98021.06;5106469;28;20085;-65
2021/12/09 10:01:53;;;;;;;13.95;10.98;;;;;;;-0.20;81.18;97970.94;5106566;28;20063;-66
2021/12/09 10:04:33;;;;;;;14.80;12.23;;;;;;;0.02;81.23;98010.97;5106465;28;20087;-66
2021/12/09 10:07:06;;;;;;;13.73;9.98;;;;;;;0.05;81.20;98003.03;5106864;28;20055;-65
2021/12/09 10:09:39;;;;;;;15.70;10.60;;;;;;;0.10;81.10;98005.50;5106302;28;20093;-66
2021/12/09 10:12:12;;;;;;;17.35;12.50;;;;;;;0.05;81.18;98000.44;5105850;28;20048;-66
2021/12/09 10:14:50;;;;;;;15.05;11.50;;;;;;;0.06;81.30;98002.13;5105291;28;20326;-65
2021/12/09 10:17:26;;;;;;;18.60;13.07;;;;;;;0.04;81.35;97997.88;5106156;28;20108;-66
2021/12/09 10:20:00;;;;;;;14.43;10.75;;;;;;;0.05;81.39;97996.97;5106274;28;20044;-66
2021/12/09 10:22:35;;;;;;;18.48;13.95;;;;;;;0.08;81.35;98000.34;5106090;28;20048;-65
2021/12/09 10:25:18;;;;;;;19.08;12.93;;;;;;;0.09;81.39;97995.97;5105737;28;20086;-66
2021/12/09 10:27:58;;;;;;;18.65;12.93;;;;;;;0.06;81.13;98004.75;5105973;28;20094;-66
2021/12/09 10:30:36;;;;;;;21.35;15.90;;;;;;;0.06;81.19;97999.53;5105987;28;20271;-65
2021/12/09 10:33:09;;;;;;;18.88;13.90;;;;;;;-0.01;81.62;97992.84;5106024;28;20055;-65
2021/12/09 10:35:41;;;;;;;17.23;13.25;;;;;;;-1.50;81.19;97746.31;5105858;28;20242;-66
2021/12/09 10:38:13;;;;;;;16.48;10.82;;;;;;;-0.10;81.62;97991.41;5105809;28;20299;-65
2021/12/09 10:40:45;;;;;;;15.60;12.32;;;;;;;-0.10;81.67;97987.94;5105742;28;20082;-65
2021/12/09 10:43:18;;;;;;;15.52;9.45;;;;;;;-0.93;81.46;97864.94;5105754;28;20238;-65
2021/12/09 10:45:52;;;;;;;17.85;10.98;;;;;;;-0.09;81.36;97997.44;5105896;28;20043;-65
2021/12/09 10:48:40;;;;;;;14.15;10.52;;;;;;;-0.08;81.28;97999.16;5105741;28;20227;-66
2021/12/09 10:51:24;;;;;;;13.93;10.68;;;;;;;-0.09;81.49;97995.69;5105793;28;20114;-65
2021/12/09 10:53:58;;;;;;;14.73;11.13;;;;;;;-0.09;81.75;97992.25;5105743;28;20059;-65
2021/12/09 10:56:33;;;;;;;13.00;10.65;;;;;;;-0.06;81.27;97989.53;5105423;28;20227;-65
2021/12/09 10:59:05;;;;;;;14.43;10.48;;;;;;;-0.03;81.24;97981.63;5105610;28;20120;-66
2021/12/09 11:01:39;;;;;;;14.88;12.25;;;;;;;0.01;81.03;97988.44;5106224;28;20052;-66
2021/12/09 11:04:11;;;;;;;13.75;10.65;;;;;;;0.02;81.27;97986.66;5105445;28;20337;-65
2021/12/09 11:06:46;;;;;;;15.18;10.50;;;;;;;0.05;80.84;97979.59;5105486;28;20086;-65
2021/12/09 11:09:18;;;;;;;14.35;9.27;;;;;;;0.08;81.02;97971.69;5105406;28;20040;-66
2021/12/09 11:11:56;;;;;;;13.02;9.98;;;;;;;0.12;80.86;97967.22;5105596;28;20044;-65
2021/12/09 11:14:28;;;;;;;13.20;10.05;;;;;;;0.15;80.83;97970.56;5104982;28;20056;-66
2021/12/09 11:17:03;;;;;;;15.32;10.85;;;;;;;0.16;81.17;97966.19;5105313;28;20204;-65
2021/12/09 11:19:39;;;;;;;15.02;9.75;;;;;;;0.17;81.23;97975.72;5105348;28;20048;-65
2021/12/09 11:22:19;;;;;;;14.00;10.05;;;;;;;0.20;80.78;97967.78;5105292;28;20089;-65
2021/12/09 11:24:58;;;;;;;14.45;10.82;;;;;;;0.23;80.83;97971.13;5105395;28;20047;-66
2021/12/09 11:27:31;;;;;;;15.32;10.20;;;;;;;0.22;80.89;97968.59;5105373;28;20040;-66
2021/12/09 11:30:11;;;;;;;13.60;10.27;;;;;;;0.18;80.95;97970.44;5105649;28;20249;-65
2021/12/09 11:32:49;;;;;;;15.15;10.32;;;;;;;0.09;80.86;97970.78;5105652;28;20105;-66
2021/12/09 11:35:26;;;;;;;11.45;7.47;;;;;;;0.08;80.72;97974.28;5105481;28;20089;-65
2021/12/09 11:38:05;;;;;;;13.32;8.07;;;;;;;0.05;80.74;97974.38;5105569;28;20040;-65
2021/12/09 11:40:44;;;;;;;13.25;9.55;;;;;;;-0.20;80.98;97939.69;5104645;28;20048;-65
2021/12/09 11:43:21;;;;;;;14.60;10.43;;;;;;;0.01;81.29;97993.63;5105746;28;20335;-66
2021/12/09 11:45:57;;;;;;;14.55;8.93;;;;;;;0.03;81.23;97978.81;5105291;28;20105;-66
2021/12/09 11:48:31;;;;;;;13.18;8.82;;;;;;;-0.14;80.94;97939.47;5105290;28;20226;-65